createdAt,value
2016-03-14T08:50:39.210Z,99.99
2016-03-14T08:50:52.975Z,99.99
2016-03-14T08:51:06.882Z,99.99
2016-03-14T08:51:20.821Z,99.99
2016-03-14T08:51:34.977Z,99.99
2016-03-14T08:51:48.962Z,99.99
2016-03-14T08:52:02.946Z,99.99
2016-03-14T08:52:16.871Z,99.99
2016-03-14T08:52:35.137Z,99.99
2016-03-14T08:52:49.043Z,99.99
2016-03-14T08:53:03.168Z,99.99
2016-03-14T08:53:16.561Z,99.99
2016-03-14T08:53:30.452Z,99.99
2016-03-14T08:53:44.718Z,99.99
2016-03-14T08:53:58.733Z,99.99
2016-03-14T08:54:12.673Z,99.99
2016-03-14T08:54:26.563Z,99.99
2016-03-14T08:54:40.798Z,99.99
2016-03-14T08:54:54.829Z,99.99
2016-03-14T08:55:08.910Z,99.99
2016-03-14T08:55:22.926Z,99.99
2016-03-14T08:55:37.191Z,99.99
2016-03-14T08:55:51.160Z,99.99
2016-03-14T08:56:05.270Z,99.99
2016-03-14T08:56:19.163Z,99.64
2016-03-14T08:56:33.132Z,99.74
2016-03-14T08:56:47.038Z,99.51
2016-03-14T08:57:01.054Z,99.55
2016-03-14T08:57:14.837Z,98.98
2016-03-14T08:57:28.728Z,98.79
2016-03-14T08:57:42.728Z,99.26
2016-03-14T08:57:56.696Z,99.64
2016-03-14T08:58:10.590Z,99.45
2016-03-14T08:58:24.559Z,99.99
2016-03-14T08:58:38.590Z,99.99
2016-03-14T08:58:52.481Z,99.99
2016-03-14T08:59:06.559Z,98.98
2016-03-14T08:59:20.952Z,99.17
2016-03-14T08:59:34.952Z,99.74
2016-03-14T08:59:48.906Z,99.99
2016-03-14T09:00:02.921Z,99.99
2016-03-14T09:00:17.174Z,99.99
2016-03-14T09:00:31.159Z,99.99
2016-03-14T09:00:45.065Z,99.99
2016-03-14T09:00:58.987Z,99.99
2016-03-14T09:01:12.801Z,99.99
2016-03-14T09:01:26.661Z,99.99
2016-03-14T09:01:40.676Z,99.99
2016-03-14T09:01:54.754Z,99.99
2016-03-14T09:02:11.632Z,99.99
2016-03-14T09:02:25.523Z,99.99
2016-03-14T09:02:39.789Z,99.99
2016-03-14T09:02:53.679Z,99.99
2016-03-14T09:03:08.181Z,99.99
2016-03-14T09:03:22.134Z,99.99
2016-03-14T09:03:35.962Z,99.99
2016-03-14T09:03:49.962Z,99.99
2016-03-14T09:04:03.962Z,99.99
2016-03-14T09:04:17.825Z,99.99
2016-03-14T09:04:31.700Z,99.99
2016-03-14T09:04:45.965Z,99.99
2016-03-14T09:05:00.122Z,99.99
2016-03-14T09:05:13.984Z,99.99
2016-03-14T09:05:27.797Z,99.99
2016-03-14T09:05:41.531Z,99.99
2016-03-14T09:05:55.515Z,99.99
2016-03-14T09:06:09.565Z,99.99
2016-03-14T09:06:23.628Z,99.99
2016-03-14T09:06:37.721Z,99.99
2016-03-14T09:06:52.003Z,99.99
2016-03-14T09:07:06.503Z,99.99
2016-03-14T09:07:20.598Z,99.99
2016-03-14T09:07:34.583Z,99.99
2016-03-14T09:07:48.302Z,99.99
2016-03-14T09:08:02.317Z,99.99
2016-03-14T09:08:16.211Z,99.99
2016-03-14T09:08:30.476Z,99.99
2016-03-14T09:08:44.414Z,99.99
2016-03-14T09:08:58.789Z,99.99
2016-03-14T09:09:12.635Z,99.99
2016-03-14T09:09:26.760Z,99.99
2016-03-14T09:09:40.650Z,99.99
2016-03-14T09:09:55.010Z,99.99
2016-03-14T09:10:09.497Z,99.99
2016-03-14T09:10:23.497Z,99.99
2016-03-14T09:10:37.513Z,99.99
2016-03-14T09:10:51.778Z,99.99
2016-03-14T09:11:05.856Z,99.99
2016-03-14T09:11:19.688Z,99.99
2016-03-14T09:11:33.813Z,99.99
2016-03-14T09:11:47.875Z,99.99
2016-03-14T09:12:01.891Z,99.99
2016-03-14T09:12:15.908Z,99.99
2016-03-14T09:12:29.783Z,99.99
2016-03-14T09:12:43.768Z,99.99
2016-03-14T09:12:57.690Z,99.99
2016-03-14T09:13:10.755Z,99.99
2016-03-14T09:13:24.802Z,99.99
2016-03-14T09:13:39.114Z,99.99
2016-03-14T09:13:53.364Z,99.99
2016-03-14T09:14:07.255Z,99.99
2016-03-14T09:14:21.774Z,99.99
2016-03-14T09:14:35.649Z,99.99
2016-03-14T09:14:49.680Z,99.99
2016-03-14T09:15:03.821Z,99.99
2016-03-14T09:15:18.089Z,99.99
2016-03-14T09:15:31.995Z,99.99
2016-03-14T09:15:46.011Z,99.99
2016-03-14T09:16:00.058Z,99.99
2016-03-14T09:16:14.060Z,99.99
2016-03-14T09:16:27.919Z,99.99
2016-03-14T09:16:41.966Z,99.99
2016-03-14T09:16:55.919Z,99.99
2016-03-14T09:17:10.172Z,99.99
2016-03-14T09:17:24.157Z,99.99
2016-03-14T09:17:38.032Z,99.99
2016-03-14T09:17:51.969Z,99.99
2016-03-14T09:18:06.313Z,99.99
2016-03-14T09:18:20.081Z,99.99
2016-03-14T09:18:33.987Z,99.99
2016-03-14T09:18:48.002Z,99.99
2016-03-14T09:19:02.002Z,99.99
2016-03-14T09:19:16.116Z,99.99
2016-03-14T09:19:30.413Z,99.99
2016-03-14T09:19:44.428Z,99.99
2016-03-14T09:19:58.569Z,99.99
2016-03-14T09:20:12.758Z,99.99
2016-03-14T09:20:26.899Z,99.99
2016-03-14T09:20:40.868Z,99.99
2016-03-14T09:20:54.899Z,99.99
2016-03-14T09:21:08.902Z,99.99
2016-03-14T09:21:22.933Z,99.99
2016-03-14T09:21:37.043Z,99.99
2016-03-14T09:21:50.902Z,99.99
2016-03-14T09:22:04.933Z,99.99
2016-03-14T09:22:18.857Z,99.99
2016-03-14T09:22:46.888Z,99.99
2016-03-14T09:23:00.779Z,99.99
2016-03-14T09:23:14.673Z,99.99
2016-03-14T09:23:28.688Z,99.99
2016-03-14T09:23:42.845Z,99.99
2016-03-14T09:23:57.157Z,99.99
2016-03-14T09:24:11.237Z,99.99
2016-03-14T09:24:25.487Z,99.99
2016-03-14T09:24:39.487Z,99.99
2016-03-14T09:24:53.378Z,99.99
2016-03-14T09:25:07.940Z,99.99
2016-03-14T09:25:22.210Z,99.99
2016-03-14T09:25:36.163Z,99.99
2016-03-14T09:25:50.038Z,99.99
2016-03-14T09:26:04.179Z,99.99
2016-03-14T09:26:18.149Z,99.99
2016-03-14T09:26:32.306Z,99.99
2016-03-14T09:26:46.774Z,99.99
2016-03-14T09:27:00.743Z,99.99
2016-03-14T09:27:14.871Z,99.99
2016-03-14T09:27:28.824Z,99.99
2016-03-14T09:27:42.793Z,99.99
2016-03-14T09:27:56.902Z,99.99
2016-03-14T09:28:10.826Z,99.99
2016-03-14T09:28:24.779Z,99.99
2016-03-14T09:28:38.639Z,99.99
2016-03-14T09:28:52.639Z,99.99
2016-03-14T09:29:06.889Z,99.99
2016-03-14T09:29:20.126Z,99.99
2016-03-14T09:29:34.298Z,99.99
2016-03-14T09:29:48.204Z,99.99
2016-03-14T09:30:02.282Z,99.99
2016-03-14T09:30:16.364Z,99.99
2016-03-14T09:30:30.254Z,99.99
2016-03-14T09:30:43.707Z,99.99
2016-03-14T09:30:57.723Z,99.99
2016-03-14T09:31:11.741Z,99.99
2016-03-14T09:31:25.725Z,99.99
2016-03-14T09:31:39.803Z,99.99
2016-03-14T09:31:53.881Z,99.99
2016-03-14T09:32:08.069Z,99.99
2016-03-14T09:32:22.432Z,99.99
2016-03-14T09:32:35.854Z,99.99
2016-03-14T09:32:50.182Z,99.99
2016-03-14T09:33:04.166Z,99.99
2016-03-14T09:33:18.168Z,99.99
2016-03-14T09:33:32.278Z,99.99
2016-03-14T09:33:46.231Z,99.99
2016-03-14T09:34:00.247Z,99.99
2016-03-14T09:34:14.375Z,99.99
2016-03-14T09:34:28.703Z,99.99
2016-03-14T09:34:43.078Z,99.99
2016-03-14T09:34:57.109Z,99.99
2016-03-14T09:35:11.423Z,99.99
2016-03-14T09:35:25.502Z,99.99
2016-03-14T09:35:39.736Z,99.99
2016-03-14T09:35:53.767Z,99.99
2016-03-14T09:36:07.783Z,99.99
2016-03-14T09:36:21.051Z,99.99
2016-03-14T09:36:35.364Z,99.99
2016-03-14T09:36:49.348Z,99.99
2016-03-14T09:37:03.255Z,99.99
2016-03-14T09:37:17.226Z,99.99
2016-03-14T09:37:31.476Z,99.99
2016-03-14T09:37:45.742Z,99.99
2016-03-14T09:37:59.726Z,99.99
2016-03-14T09:38:13.776Z,99.99
2016-03-14T09:38:27.745Z,99.99
2016-03-14T09:38:41.729Z,99.99
2016-03-14T09:38:55.870Z,99.99
2016-03-14T09:39:10.122Z,99.99
2016-03-14T09:39:24.216Z,99.99
2016-03-14T09:39:38.216Z,99.99
2016-03-14T09:39:52.231Z,99.99
2016-03-14T09:40:06.669Z,99.99
2016-03-14T09:40:20.625Z,99.99
2016-03-14T09:40:34.656Z,99.99
2016-03-14T09:40:48.406Z,99.99
2016-03-14T09:41:02.500Z,99.99
2016-03-14T09:41:16.847Z,99.99
2016-03-14T09:41:30.878Z,99.99
2016-03-14T09:41:44.753Z,99.99
2016-03-14T09:41:58.769Z,99.99
2016-03-14T09:42:12.725Z,99.99
2016-03-14T09:42:26.975Z,99.99
2016-03-14T09:42:41.225Z,99.99
2016-03-14T09:42:55.256Z,99.99
2016-03-14T09:43:09.774Z,99.99
2016-03-14T09:43:23.742Z,99.99
2016-03-14T09:43:37.727Z,99.99
2016-03-14T09:43:51.492Z,99.99
2016-03-14T09:44:04.758Z,99.99
2016-03-14T09:44:18.761Z,99.99
2016-03-14T09:44:32.652Z,99.99
2016-03-14T09:44:46.792Z,99.99
2016-03-14T09:45:00.636Z,99.99
2016-03-14T09:45:14.264Z,99.99
2016-03-14T09:45:28.155Z,99.99
2016-03-14T09:45:42.655Z,99.99
2016-03-14T09:45:56.608Z,99.99
2016-03-14T09:46:10.625Z,99.99
2016-03-14T09:46:38.782Z,99.99
2016-03-14T09:46:52.782Z,99.99
2016-03-14T09:47:06.860Z,99.99
2016-03-14T09:47:20.863Z,99.99
2016-03-14T09:47:34.863Z,99.99
2016-03-14T09:47:49.331Z,99.99
2016-03-14T09:48:03.660Z,99.99
2016-03-14T09:48:17.849Z,99.99
2016-03-14T09:48:31.880Z,99.99
2016-03-14T09:48:46.177Z,99.99
2016-03-14T09:49:00.177Z,99.99
2016-03-14T09:49:14.227Z,99.99
2016-03-14T09:49:28.055Z,99.99
2016-03-14T09:49:42.321Z,99.99
2016-03-14T09:49:56.477Z,99.99
2016-03-14T09:50:10.558Z,99.99
2016-03-14T09:50:24.902Z,99.99
2016-03-14T09:50:39.027Z,99.99
2016-03-14T09:50:53.074Z,99.99
2016-03-14T09:51:06.996Z,99.99
2016-03-14T09:51:20.998Z,99.99
2016-03-14T09:51:35.263Z,99.99
2016-03-14T09:51:49.685Z,99.99
2016-03-14T09:52:03.888Z,99.99
2016-03-14T09:52:18.017Z,99.99
2016-03-14T09:52:31.955Z,99.99
2016-03-14T09:52:46.064Z,99.99
2016-03-14T09:53:00.080Z,99.99
2016-03-14T09:53:14.082Z,99.99
2016-03-14T09:53:28.394Z,99.99
2016-03-14T09:53:42.301Z,99.99
2016-03-14T09:53:56.394Z,99.99
2016-03-14T09:54:10.507Z,99.99
2016-03-14T09:54:24.788Z,99.99
2016-03-14T09:54:38.866Z,99.99
2016-03-14T09:54:52.850Z,99.99
2016-03-14T09:55:07.710Z,99.99
2016-03-14T09:55:22.477Z,99.99
2016-03-14T09:55:36.665Z,99.99
2016-03-14T09:55:50.587Z,99.99
2016-03-14T09:56:04.665Z,99.99
2016-03-14T09:56:18.746Z,99.99
2016-03-14T09:56:32.996Z,99.99
2016-03-14T09:56:47.043Z,99.99
2016-03-14T09:57:01.277Z,99.99
2016-03-14T09:57:15.154Z,99.99
2016-03-14T09:57:29.217Z,99.99
2016-03-14T09:57:57.498Z,99.99
2016-03-14T09:58:11.579Z,99.99
2016-03-14T09:58:25.704Z,99.99
2016-03-14T09:58:39.579Z,99.99
2016-03-14T09:58:53.610Z,99.99
2016-03-14T09:59:07.626Z,99.99
2016-03-14T09:59:21.676Z,99.99
2016-03-14T09:59:35.785Z,99.99
2016-03-14T09:59:49.910Z,99.99
2016-03-14T10:00:03.942Z,99.99
2016-03-14T10:00:18.241Z,99.99
2016-03-14T10:00:32.445Z,99.99
2016-03-14T10:00:47.054Z,99.99
2016-03-14T10:01:01.101Z,99.99
2016-03-14T10:01:15.604Z,99.99
2016-03-14T10:01:29.494Z,99.99
2016-03-14T10:01:43.682Z,99.99
2016-03-14T10:01:57.291Z,99.99
2016-03-14T10:02:11.323Z,99.99
2016-03-14T10:02:24.543Z,99.99
2016-03-14T10:02:38.637Z,99.99
2016-03-14T10:02:52.762Z,99.99
2016-03-14T10:03:07.012Z,99.99
2016-03-14T10:03:20.968Z,99.99
2016-03-14T10:03:34.796Z,99.99
2016-03-14T10:03:48.781Z,99.99
2016-03-14T10:04:02.828Z,99.99
2016-03-14T10:04:31.096Z,99.99
2016-03-14T10:04:45.424Z,99.99
2016-03-14T10:04:59.424Z,99.99
2016-03-14T10:05:13.567Z,99.99
2016-03-14T10:05:27.942Z,99.99
2016-03-14T10:05:41.833Z,99.99
2016-03-14T10:05:55.786Z,99.99
2016-03-14T10:06:09.583Z,99.99
2016-03-14T10:06:23.434Z,99.99
2016-03-14T10:06:37.700Z,99.99
2016-03-14T10:06:52.200Z,99.99
2016-03-14T10:07:05.611Z,99.99
2016-03-14T10:07:19.660Z,99.99
2016-03-14T10:07:33.707Z,99.99
2016-03-14T10:07:47.629Z,99.99
2016-03-14T10:08:01.722Z,99.99
2016-03-14T10:08:15.789Z,99.99
2016-03-14T10:08:29.789Z,99.99
2016-03-14T10:08:44.054Z,99.99
2016-03-14T10:08:58.617Z,99.99
2016-03-14T10:09:12.650Z,99.99
2016-03-14T10:09:26.666Z,99.99
2016-03-14T10:09:40.603Z,99.99
2016-03-14T10:09:54.619Z,99.99
2016-03-14T10:10:08.978Z,99.99
2016-03-14T10:10:22.888Z,99.99
2016-03-14T10:10:39.888Z,99.99
2016-03-14T10:11:22.233Z,99.99
2016-03-14T10:11:36.733Z,99.99
2016-03-14T10:11:50.921Z,99.99
2016-03-14T10:12:04.952Z,99.99
2016-03-14T10:12:18.877Z,99.99
2016-03-14T10:12:32.830Z,99.99
2016-03-14T10:12:46.799Z,99.99
2016-03-14T10:13:00.627Z,99.99
2016-03-14T10:13:14.567Z,99.99
2016-03-14T10:13:28.583Z,99.99
2016-03-14T10:13:42.802Z,99.99
2016-03-14T10:13:57.036Z,99.99
2016-03-14T10:14:10.927Z,99.99
2016-03-14T10:14:25.195Z,99.99
2016-03-14T10:14:39.399Z,99.99
2016-03-14T10:14:53.352Z,99.99
2016-03-14T10:15:07.352Z,99.99
2016-03-14T10:15:20.244Z,99.99
2016-03-14T10:15:34.510Z,99.99
2016-03-14T10:15:48.479Z,99.99
2016-03-14T10:16:02.510Z,99.99
2016-03-14T10:16:16.794Z,99.99
2016-03-14T10:16:30.794Z,99.99
2016-03-14T10:16:44.825Z,99.99
2016-03-14T10:16:58.950Z,99.99
2016-03-14T10:17:12.874Z,99.99
2016-03-14T10:17:26.046Z,99.99
2016-03-14T10:17:40.062Z,99.99
2016-03-14T10:17:54.499Z,99.99
2016-03-14T10:18:08.609Z,99.99
2016-03-14T10:18:22.534Z,99.99
2016-03-14T10:18:36.612Z,99.99
2016-03-14T10:18:50.502Z,99.99
2016-03-14T10:19:04.971Z,99.99
2016-03-14T10:19:19.083Z,99.99
2016-03-14T10:19:33.365Z,99.99
2016-03-14T10:19:47.162Z,99.99
2016-03-14T10:20:01.208Z,99.99
2016-03-14T10:20:15.132Z,99.99
2016-03-14T10:20:29.257Z,99.99
2016-03-14T10:20:43.757Z,99.99
2016-03-14T10:20:58.039Z,99.99
2016-03-14T10:21:12.043Z,99.99
2016-03-14T10:21:25.996Z,99.99
2016-03-14T10:21:40.371Z,99.99
2016-03-14T10:21:54.636Z,99.99
2016-03-14T10:22:08.527Z,99.99
2016-03-14T10:22:22.420Z,99.99
2016-03-14T10:22:36.560Z,99.99
2016-03-14T10:22:50.826Z,99.99
2016-03-14T10:23:04.810Z,99.99
2016-03-14T10:23:18.829Z,99.99
2016-03-14T10:23:32.798Z,99.99
2016-03-14T10:23:46.876Z,99.99
2016-03-14T10:24:00.813Z,99.99
2016-03-14T10:24:15.112Z,99.99
2016-03-14T10:24:29.034Z,99.99
2016-03-14T10:24:43.034Z,99.99
2016-03-14T10:24:57.081Z,99.99
2016-03-14T10:25:11.846Z,99.99
2016-03-14T10:25:26.131Z,99.99
2016-03-14T10:25:40.646Z,99.99
2016-03-14T10:25:54.771Z,99.99
2016-03-14T10:26:09.037Z,99.99
2016-03-14T10:26:23.071Z,99.99
2016-03-14T10:26:37.181Z,99.99
2016-03-14T10:26:51.415Z,99.99
2016-03-14T10:27:05.431Z,99.99
2016-03-14T10:27:19.464Z,99.99
2016-03-14T10:27:33.479Z,99.99
2016-03-14T10:27:48.120Z,99.99
2016-03-14T10:28:02.011Z,99.99
2016-03-14T10:28:15.999Z,99.99
2016-03-14T10:28:30.030Z,99.99
2016-03-14T10:28:44.296Z,99.99
2016-03-14T10:28:58.921Z,99.99
2016-03-14T10:29:12.939Z,99.99
2016-03-14T10:29:26.939Z,99.99
2016-03-14T10:29:41.204Z,99.99
2016-03-14T10:29:54.360Z,99.99
2016-03-14T10:30:08.454Z,99.99
2016-03-14T10:30:22.567Z,99.99
2016-03-14T10:30:36.504Z,99.99
2016-03-14T10:30:50.629Z,99.99
2016-03-14T10:31:04.832Z,99.99
2016-03-14T10:31:18.865Z,99.99
2016-03-14T10:31:33.006Z,99.99
2016-03-14T10:31:47.240Z,99.99
2016-03-14T10:32:01.444Z,99.99
2016-03-14T10:32:15.415Z,99.99
2016-03-14T10:32:29.540Z,99.99
2016-03-14T10:32:43.806Z,99.99
2016-03-14T10:32:57.822Z,99.99
2016-03-14T10:33:11.697Z,99.99
2016-03-14T10:33:25.965Z,99.99
2016-03-14T10:33:39.981Z,99.99
2016-03-14T10:33:54.028Z,99.99
2016-03-14T10:34:08.028Z,99.99
2016-03-14T10:34:22.234Z,99.99
2016-03-14T10:34:37.015Z,99.99
2016-03-14T10:34:51.015Z,99.99
2016-03-14T10:35:05.093Z,99.99
2016-03-14T10:35:19.142Z,99.99
2016-03-14T10:35:33.205Z,99.99
2016-03-14T10:35:47.189Z,99.99
2016-03-14T10:36:01.158Z,99.99
2016-03-14T10:36:15.253Z,99.99
2016-03-14T10:36:29.050Z,99.99
2016-03-14T10:36:43.253Z,99.99
2016-03-14T10:36:57.191Z,99.99
2016-03-14T10:37:11.097Z,99.99
2016-03-14T10:37:25.210Z,99.99
2016-03-14T10:37:39.366Z,99.99
2016-03-14T10:37:53.178Z,99.99
2016-03-14T10:38:07.085Z,99.99
2016-03-14T10:38:20.963Z,99.99
2016-03-14T10:38:34.931Z,99.99
2016-03-14T10:38:48.947Z,99.99
2016-03-14T10:39:31.216Z,99.99
2016-03-14T10:39:45.122Z,99.99
2016-03-14T10:39:59.059Z,99.99
2016-03-14T10:40:13.014Z,99.99
2016-03-14T10:40:27.014Z,99.99
2016-03-14T10:40:41.108Z,99.99
2016-03-14T10:40:58.202Z,99.99
2016-03-14T10:41:12.077Z,99.99
2016-03-14T10:41:26.127Z,99.99
2016-03-14T10:41:39.955Z,99.99
2016-03-14T10:41:53.939Z,99.99
2016-03-14T10:42:08.205Z,99.99
2016-03-14T10:42:22.286Z,99.99
2016-03-14T10:42:36.505Z,99.99
2016-03-14T10:42:50.552Z,99.99
2016-03-14T10:43:04.505Z,99.99
2016-03-14T10:43:18.820Z,99.99
2016-03-14T10:43:32.820Z,99.99
2016-03-14T10:43:46.852Z,99.99
2016-03-14T10:44:00.852Z,99.99
2016-03-14T10:44:14.994Z,99.99
2016-03-14T10:44:29.119Z,99.99
2016-03-14T10:44:43.494Z,99.99
2016-03-14T10:44:57.479Z,99.99
2016-03-14T10:45:11.338Z,99.99
2016-03-14T10:45:25.622Z,99.99
2016-03-14T10:45:39.513Z,99.99
2016-03-14T10:45:53.450Z,99.99
2016-03-14T10:46:06.669Z,99.99
2016-03-14T10:46:20.547Z,99.99
2016-03-14T10:46:34.547Z,99.99
2016-03-14T10:46:49.110Z,99.99
2016-03-14T10:47:03.141Z,99.99
2016-03-14T10:47:17.283Z,99.99
2016-03-14T10:47:31.299Z,99.99
2016-03-14T10:47:45.299Z,99.99
2016-03-14T10:47:59.330Z,99.99
2016-03-14T10:48:13.271Z,99.99
2016-03-14T10:48:27.286Z,99.99
2016-03-14T10:48:41.474Z,99.99
2016-03-14T10:48:58.411Z,99.99
2016-03-14T10:49:12.508Z,99.99
2016-03-14T10:49:26.446Z,99.99
2016-03-14T10:49:40.493Z,99.99
2016-03-14T10:49:54.524Z,99.99
2016-03-14T10:50:08.586Z,99.99
2016-03-14T10:50:50.948Z,99.99
2016-03-14T10:51:04.885Z,99.99
2016-03-14T10:51:18.919Z,99.99
2016-03-14T10:51:32.794Z,99.99
2016-03-14T10:51:46.982Z,99.99
2016-03-14T10:52:00.201Z,99.99
2016-03-14T10:52:14.234Z,99.99
2016-03-14T10:52:28.656Z,99.99
2016-03-14T10:52:43.015Z,99.99
2016-03-14T10:52:56.812Z,99.99
2016-03-14T10:53:10.796Z,99.99
2016-03-14T10:53:25.018Z,99.99
2016-03-14T10:53:38.893Z,99.99
2016-03-14T10:53:52.909Z,99.99
2016-03-14T10:54:07.081Z,99.99
2016-03-14T10:54:20.662Z,99.99
2016-03-14T10:54:34.584Z,99.99
2016-03-14T10:54:48.709Z,99.99
2016-03-14T10:55:02.677Z,99.99
2016-03-14T10:55:16.617Z,99.99
2016-03-14T10:55:30.804Z,99.99
2016-03-14T10:55:44.945Z,99.99
2016-03-14T10:55:58.961Z,99.99
2016-03-14T10:56:12.918Z,99.99
2016-03-14T10:56:27.230Z,99.99
2016-03-14T10:56:41.371Z,99.99
2016-03-14T10:56:55.324Z,99.99
2016-03-14T10:57:09.137Z,99.99
2016-03-14T10:57:23.045Z,99.99
2016-03-14T10:57:37.045Z,99.99
2016-03-14T10:57:51.232Z,99.99
2016-03-14T10:58:05.264Z,99.99
2016-03-14T10:58:19.829Z,99.99
2016-03-14T10:58:33.782Z,99.99
2016-03-14T10:58:47.735Z,99.99
2016-03-14T10:59:01.813Z,99.99
2016-03-14T10:59:15.831Z,99.99
2016-03-14T10:59:30.144Z,99.99
2016-03-14T10:59:44.394Z,99.99
2016-03-14T10:59:58.159Z,99.99
2016-03-14T11:00:12.897Z,99.99
2016-03-14T11:00:26.803Z,99.99
2016-03-14T11:00:41.084Z,99.99
2016-03-14T11:00:55.085Z,99.99
2016-03-14T11:01:09.069Z,99.99
2016-03-14T11:01:23.307Z,99.99
2016-03-14T11:01:37.307Z,99.99
2016-03-14T11:01:51.369Z,99.99
2016-03-14T11:02:05.307Z,99.99
2016-03-14T11:02:19.418Z,99.99
2016-03-14T11:02:33.840Z,99.99
2016-03-14T11:02:47.856Z,99.99
2016-03-14T11:03:01.903Z,99.99
2016-03-14T11:03:15.952Z,99.99
2016-03-14T11:03:30.046Z,99.99
2016-03-14T11:03:43.984Z,99.99
2016-03-14T11:03:57.812Z,99.99
2016-03-14T11:04:11.765Z,99.99
2016-03-14T11:04:25.955Z,99.99
2016-03-14T11:04:39.799Z,99.99
2016-03-14T11:04:53.924Z,99.99
2016-03-14T11:05:07.768Z,99.99
2016-03-14T11:05:21.693Z,99.99
2016-03-14T11:05:35.708Z,99.99
2016-03-14T11:05:49.833Z,99.99
2016-03-14T11:06:03.724Z,99.99
2016-03-14T11:06:17.804Z,99.99
2016-03-14T11:06:32.007Z,99.99
2016-03-14T11:06:46.132Z,99.99
2016-03-14T11:07:00.445Z,99.99
2016-03-14T11:07:14.417Z,99.99
2016-03-14T11:07:28.417Z,99.99
2016-03-14T11:07:42.370Z,99.99
2016-03-14T11:07:56.495Z,99.99
2016-03-14T11:08:10.463Z,99.99
2016-03-14T11:08:24.685Z,99.99
2016-03-14T11:08:38.701Z,99.99
2016-03-14T11:08:52.732Z,99.99
2016-03-14T11:09:06.685Z,99.99
2016-03-14T11:09:20.703Z,99.99
2016-03-14T11:09:34.890Z,99.99
2016-03-14T11:09:49.062Z,99.99
2016-03-14T11:10:03.047Z,99.99
2016-03-14T11:10:17.331Z,99.99
2016-03-14T11:10:30.659Z,99.99
2016-03-14T11:10:44.971Z,99.99
2016-03-14T11:10:59.096Z,99.99
2016-03-14T11:11:13.114Z,99.99
2016-03-14T11:11:27.567Z,99.99
2016-03-14T11:11:41.677Z,99.99
2016-03-14T11:11:55.661Z,99.99
2016-03-14T11:12:09.739Z,99.99
2016-03-14T11:12:24.055Z,99.99
2016-03-14T11:12:38.055Z,99.99
2016-03-14T11:12:52.320Z,99.99
2016-03-14T11:13:06.773Z,99.99
2016-03-14T11:13:20.979Z,99.99
2016-03-14T11:13:35.011Z,99.99
2016-03-14T11:13:48.979Z,99.99
2016-03-14T11:14:02.854Z,99.99
2016-03-14T11:14:16.779Z,99.99
2016-03-14T11:14:31.076Z,99.99
2016-03-14T11:14:45.420Z,99.99
2016-03-14T11:14:59.529Z,99.99
2016-03-14T11:15:13.626Z,99.99
2016-03-14T11:15:27.720Z,99.99
2016-03-14T11:15:41.720Z,99.99
2016-03-14T11:15:56.032Z,99.99
2016-03-14T11:16:10.048Z,99.99
2016-03-14T11:16:24.050Z,99.99
2016-03-14T11:16:38.144Z,99.99
2016-03-14T11:16:52.159Z,99.99
2016-03-14T11:17:06.175Z,99.99
2016-03-14T11:17:20.272Z,99.99
2016-03-14T11:17:34.350Z,99.99
2016-03-14T11:18:02.381Z,99.99
2016-03-14T11:18:16.414Z,99.99
2016-03-14T11:18:30.852Z,99.99
2016-03-14T11:18:44.883Z,99.99
2016-03-14T11:18:58.117Z,99.99
2016-03-14T11:19:11.383Z,99.99
2016-03-14T11:19:25.667Z,99.99
2016-03-14T11:19:39.917Z,99.99
2016-03-14T11:19:54.183Z,99.99
2016-03-14T11:20:08.261Z,99.99
2016-03-14T11:20:22.217Z,99.99
2016-03-14T11:20:36.202Z,99.99
2016-03-14T11:20:50.170Z,99.99
2016-03-14T11:21:04.202Z,99.99
2016-03-14T11:21:18.189Z,99.99
2016-03-14T11:21:32.080Z,99.99
2016-03-14T11:21:46.051Z,99.99
2016-03-14T11:21:59.848Z,99.99
2016-03-14T11:22:13.991Z,99.99
2016-03-14T11:22:28.022Z,99.99
2016-03-14T11:22:41.897Z,99.99
2016-03-14T11:22:55.350Z,99.99
2016-03-14T11:23:09.178Z,99.99
2016-03-14T11:23:36.712Z,99.99
2016-03-14T11:23:50.665Z,99.99
2016-03-14T11:24:04.930Z,99.99
2016-03-14T11:24:18.074Z,99.99
2016-03-14T11:24:31.965Z,99.99
2016-03-14T11:24:45.933Z,99.99
2016-03-14T11:25:00.043Z,99.99
2016-03-14T11:25:14.264Z,99.99
2016-03-14T11:25:28.186Z,99.99
2016-03-14T11:25:42.405Z,99.99
2016-03-14T11:25:55.843Z,99.99
2016-03-14T11:26:09.796Z,99.99
2016-03-14T11:26:23.814Z,99.99
2016-03-14T11:26:37.752Z,99.99
2016-03-14T11:26:52.033Z,99.99
2016-03-14T11:27:06.377Z,99.99
2016-03-14T11:27:20.269Z,99.99
2016-03-14T11:27:34.519Z,99.99
2016-03-14T11:27:49.191Z,99.99
2016-03-14T11:28:03.285Z,99.99
2016-03-14T11:28:17.522Z,99.99
2016-03-14T11:28:31.538Z,99.99
2016-03-14T11:28:45.476Z,99.99
2016-03-14T11:28:59.491Z,99.99
2016-03-14T11:29:13.635Z,99.99
2016-03-14T11:29:27.775Z,99.99
2016-03-14T11:29:41.650Z,99.99
2016-03-14T11:29:55.557Z,99.99
2016-03-14T11:30:09.807Z,99.99
2016-03-14T11:30:26.652Z,99.99
2016-03-14T11:30:40.793Z,99.99
2016-03-14T11:30:54.949Z,99.99
2016-03-14T11:31:08.090Z,99.99
2016-03-14T11:31:36.328Z,99.99
2016-03-14T11:31:50.797Z,99.99
2016-03-14T11:32:04.813Z,99.99
2016-03-14T11:32:18.940Z,99.99
2016-03-14T11:32:36.127Z,99.99
2016-03-14T11:32:50.080Z,99.99
2016-03-14T11:33:03.846Z,99.99
2016-03-14T11:33:18.943Z,99.99
2016-03-14T11:33:33.161Z,99.99
2016-03-14T11:33:47.083Z,99.99
2016-03-14T11:34:01.052Z,99.99
2016-03-14T11:34:14.836Z,99.99
2016-03-14T11:34:29.321Z,99.99
2016-03-14T11:34:43.727Z,99.99
2016-03-14T11:35:28.995Z,99.99
2016-03-14T11:35:43.620Z,99.99
2016-03-14T11:35:57.620Z,99.99
2016-03-14T11:36:12.088Z,99.99
2016-03-14T11:36:26.216Z,99.99
2016-03-14T11:36:40.248Z,99.99
2016-03-14T11:36:54.060Z,99.99
2016-03-14T11:37:08.076Z,99.99
2016-03-14T11:37:22.265Z,99.99
2016-03-14T11:37:36.734Z,99.99
2016-03-14T11:37:50.703Z,99.99
2016-03-14T11:38:04.656Z,99.99
2016-03-14T11:38:18.690Z,99.99
2016-03-14T11:38:33.003Z,99.99
2016-03-14T11:38:46.987Z,99.99
2016-03-14T11:39:00.909Z,99.99
2016-03-14T11:39:15.162Z,99.99
2016-03-14T11:39:29.318Z,99.99
2016-03-14T11:39:43.240Z,99.99
2016-03-14T11:39:57.443Z,99.99
2016-03-14T11:40:24.773Z,99.99
2016-03-14T11:40:38.664Z,99.99
2016-03-14T11:40:52.508Z,99.99
2016-03-14T11:41:06.523Z,99.99
2016-03-14T11:41:20.793Z,99.99
2016-03-14T11:41:34.605Z,99.99
2016-03-14T11:41:48.668Z,99.99
2016-03-14T11:42:02.683Z,99.99
2016-03-14T11:42:16.717Z,99.99
2016-03-14T11:42:30.764Z,99.99
2016-03-14T11:42:44.795Z,99.99
2016-03-14T11:42:58.764Z,99.99
2016-03-14T11:43:12.951Z,99.99
2016-03-14T11:43:27.109Z,99.99
2016-03-14T11:43:41.094Z,99.99
2016-03-14T11:43:54.984Z,99.99
2016-03-14T11:44:09.406Z,99.99
2016-03-14T11:44:23.253Z,99.99
2016-03-14T11:44:37.159Z,99.99
2016-03-14T11:44:51.394Z,99.99
2016-03-14T11:45:05.784Z,99.99
2016-03-14T11:45:19.850Z,99.99
2016-03-14T11:45:34.037Z,99.99
2016-03-14T11:45:47.943Z,99.99
2016-03-14T11:46:01.959Z,99.99
2016-03-14T11:46:15.853Z,99.99
2016-03-14T11:46:30.040Z,99.99
2016-03-14T11:46:43.275Z,99.99
2016-03-14T11:46:58.071Z,99.99
2016-03-14T11:47:12.103Z,99.99
2016-03-14T11:47:26.558Z,99.99
2016-03-14T11:47:40.480Z,99.99
2016-03-14T11:47:54.433Z,99.99
2016-03-14T11:48:08.308Z,99.99
2016-03-14T11:48:22.826Z,99.99
2016-03-14T11:48:37.108Z,99.99
2016-03-14T11:48:51.155Z,99.99
2016-03-14T11:49:05.092Z,99.99
2016-03-14T11:49:19.189Z,99.99
2016-03-14T11:49:32.845Z,99.99
2016-03-14T11:49:47.064Z,99.99
2016-03-14T11:50:01.220Z,99.99
2016-03-14T11:50:15.926Z,99.99
2016-03-14T11:50:29.942Z,99.99
2016-03-14T11:50:44.192Z,99.99
2016-03-14T11:50:58.707Z,99.99
2016-03-14T11:51:13.051Z,99.99
2016-03-14T11:51:27.038Z,99.99
2016-03-14T11:51:41.475Z,99.99
2016-03-14T11:51:55.413Z,99.99
2016-03-14T11:52:09.553Z,99.99
2016-03-14T11:52:23.587Z,99.99
2016-03-14T11:52:37.462Z,99.99
2016-03-14T11:53:11.322Z,99.99
2016-03-14T11:53:25.589Z,99.99
2016-03-14T11:53:39.714Z,99.99
2016-03-14T11:53:53.699Z,99.99
2016-03-14T11:54:07.683Z,99.99
2016-03-14T11:54:21.289Z,99.99
2016-03-14T11:54:35.257Z,99.99
2016-03-14T11:54:49.273Z,99.99
2016-03-14T11:55:03.273Z,99.99
2016-03-14T11:55:17.267Z,99.99
2016-03-14T11:55:31.251Z,99.99
2016-03-14T11:55:45.267Z,99.99
2016-03-14T11:55:59.283Z,99.99